sensor_id;sensor_type;location;lat;lon;timestamp;P1;durP1;ratioP1;P2;durP2;ratioP2
12445;SDS011;6287;50.984;7.022;2023-08-12T00:02:21;11.55;;;9.82;;
12445;SDS011;6287;50.984;7.022;2023-08-12T00:04:49;14.80;;;10.82;;
12445;SDS011;6287;50.984;7.022;2023-08-12T00:07:20;12.60;;;9.60;;
12445;SDS011;6287;50.984;7.022;2023-08-12T00:09:50;14.60;;;9.95;;
12445;SDS011;6287;50.984;7.022;2023-08-12T00:12:21;12.90;;;9.73;;
12445;SDS011;6287;50.984;7.022;2023-08-12T00:14:46;13.35;;;10.40;;
12445;SDS011;6287;50.984;7.022;2023-08-12T00:17:12;12.90;;;9.98;;
12445;SDS011;6287;50.984;7.022;2023-08-12T00:19:38;14.27;;;10.55;;
12445;SDS011;6287;50.984;7.022;2023-08-12T00:22:03;12.43;;;10.10;;
12445;SDS011;6287;50.984;7.022;2023-08-12T00:24:31;12.38;;;9.55;;
12445;SDS011;6287;50.984;7.022;2023-08-12T00:27:01;15.50;;;10.35;;
12445;SDS011;6287;50.984;7.022;2023-08-12T00:29:27;11.95;;;10.07;;
12445;SDS011;6287;50.984;7.022;2023-08-12T00:31:53;11.13;;;9.15;;
12445;SDS011;6287;50.984;7.022;2023-08-12T00:34:19;12.32;;;9.70;;
12445;SDS011;6287;50.984;7.022;2023-08-12T00:36:47;14.40;;;10.40;;
12445;SDS011;6287;50.984;7.022;2023-08-12T00:39:13;14.23;;;10.75;;
12445;SDS011;6287;50.984;7.022;2023-08-12T00:41:41;13.95;;;11.18;;
12445;SDS011;6287;50.984;7.022;2023-08-12T00:44:12;12.00;;;10.07;;
12445;SDS011;6287;50.984;7.022;2023-08-12T00:46:40;11.60;;;10.13;;
12445;SDS011;6287;50.984;7.022;2023-08-12T00:49:10;14.88;;;10.80;;
12445;SDS011;6287;50.984;7.022;2023-08-12T00:51:39;17.13;;;10.95;;
12445;SDS011;6287;50.984;7.022;2023-08-12T00:54:10;15.02;;;11.32;;
12445;SDS011;6287;50.984;7.022;2023-08-12T00:56:41;17.35;;;11.60;;
12445;SDS011;6287;50.984;7.022;2023-08-12T00:59:10;13.20;;;9.95;;
12445;SDS011;6287;50.984;7.022;2023-08-12T01:01:38;14.23;;;10.13;;
12445;SDS011;6287;50.984;7.022;2023-08-12T01:04:08;16.10;;;11.55;;
12445;SDS011;6287;50.984;7.022;2023-08-12T01:06:36;15.25;;;11.70;;
12445;SDS011;6287;50.984;7.022;2023-08-12T01:09:05;13.43;;;11.02;;
12445;SDS011;6287;50.984;7.022;2023-08-12T01:17:13;13.45;;;11.35;;
12445;SDS011;6287;50.984;7.022;2023-08-12T01:19:40;15.68;;;11.00;;
12445;SDS011;6287;50.984;7.022;2023-08-12T01:22:11;15.25;;;10.55;;
12445;SDS011;6287;50.984;7.022;2023-08-12T01:24:38;16.85;;;11.07;;
12445;SDS011;6287;50.984;7.022;2023-08-12T01:27:05;13.27;;;10.23;;
12445;SDS011;6287;50.984;7.022;2023-08-12T01:29:35;15.45;;;10.60;;
12445;SDS011;6287;50.984;7.022;2023-08-12T01:35:01;12.25;;;10.00;;
12445;SDS011;6287;50.984;7.022;2023-08-12T01:37:36;12.27;;;9.85;;
12445;SDS011;6287;50.984;7.022;2023-08-12T01:40:09;19.00;;;10.98;;
12445;SDS011;6287;50.984;7.022;2023-08-12T01:42:38;13.90;;;9.65;;
12445;SDS011;6287;50.984;7.022;2023-08-12T01:45:05;12.02;;;10.15;;
12445;SDS011;6287;50.984;7.022;2023-08-12T01:47:31;14.80;;;10.40;;
12445;SDS011;6287;50.984;7.022;2023-08-12T01:49:57;14.48;;;10.05;;
12445;SDS011;6287;50.984;7.022;2023-08-12T01:52:23;14.52;;;9.93;;
12445;SDS011;6287;50.984;7.022;2023-08-12T01:54:49;13.82;;;10.20;;
12445;SDS011;6287;50.984;7.022;2023-08-12T01:57:15;13.00;;;9.90;;
12445;SDS011;6287;50.984;7.022;2023-08-12T01:59:41;12.20;;;9.82;;
12445;SDS011;6287;50.984;7.022;2023-08-12T02:02:11;13.65;;;9.45;;
12445;SDS011;6287;50.984;7.022;2023-08-12T02:04:39;13.63;;;8.75;;
12445;SDS011;6287;50.984;7.022;2023-08-12T02:07:05;11.63;;;9.27;;
12445;SDS011;6287;50.984;7.022;2023-08-12T02:09:33;15.38;;;9.95;;
12445;SDS011;6287;50.984;7.022;2023-08-12T02:11:58;12.48;;;8.63;;
12445;SDS011;6287;50.984;7.022;2023-08-12T02:14:24;12.70;;;9.27;;
12445;SDS011;6287;50.984;7.022;2023-08-12T02:16:50;11.25;;;8.02;;
12445;SDS011;6287;50.984;7.022;2023-08-12T02:19:15;10.18;;;8.73;;
12445;SDS011;6287;50.984;7.022;2023-08-12T02:21:43;10.05;;;8.43;;
12445;SDS011;6287;50.984;7.022;2023-08-12T02:24:09;11.13;;;8.00;;
12445;SDS011;6287;50.984;7.022;2023-08-12T02:26:34;11.68;;;8.05;;
12445;SDS011;6287;50.984;7.022;2023-08-12T02:29:02;10.18;;;8.65;;
12445;SDS011;6287;50.984;7.022;2023-08-12T02:31:28;11.32;;;7.95;;
12445;SDS011;6287;50.984;7.022;2023-08-12T02:33:55;10.32;;;8.50;;
12445;SDS011;6287;50.984;7.022;2023-08-12T02:36:23;12.82;;;7.80;;
12445;SDS011;6287;50.984;7.022;2023-08-12T02:38:50;11.25;;;8.63;;
12445;SDS011;6287;50.984;7.022;2023-08-12T02:41:16;10.60;;;8.23;;
12445;SDS011;6287;50.984;7.022;2023-08-12T02:43:44;9.52;;;7.53;;
12445;SDS011;6287;50.984;7.022;2023-08-12T02:46:12;10.52;;;8.30;;
12445;SDS011;6287;50.984;7.022;2023-08-12T02:48:42;10.25;;;7.95;;
12445;SDS011;6287;50.984;7.022;2023-08-12T02:51:12;9.02;;;8.10;;
12445;SDS011;6287;50.984;7.022;2023-08-12T02:53:40;9.30;;;8.00;;
12445;SDS011;6287;50.984;7.022;2023-08-12T02:56:06;10.35;;;8.25;;
12445;SDS011;6287;50.984;7.022;2023-08-12T02:58:35;13.25;;;8.45;;
12445;SDS011;6287;50.984;7.022;2023-08-12T03:01:02;8.43;;;7.22;;
12445;SDS011;6287;50.984;7.022;2023-08-12T03:03:29;10.35;;;7.13;;
12445;SDS011;6287;50.984;7.022;2023-08-12T03:05:54;8.77;;;7.88;;
12445;SDS011;6287;50.984;7.022;2023-08-12T03:08:25;9.90;;;7.47;;
12445;SDS011;6287;50.984;7.022;2023-08-12T03:10:50;10.48;;;7.80;;
12445;SDS011;6287;50.984;7.022;2023-08-12T03:13:26;11.85;;;7.18;;
12445;SDS011;6287;50.984;7.022;2023-08-12T03:15:52;8.75;;;7.03;;
12445;SDS011;6287;50.984;7.022;2023-08-12T03:18:20;8.90;;;7.03;;
12445;SDS011;6287;50.984;7.022;2023-08-12T03:20:48;10.38;;;7.38;;
12445;SDS011;6287;50.984;7.022;2023-08-12T03:23:14;10.43;;;8.00;;
12445;SDS011;6287;50.984;7.022;2023-08-12T03:25:39;10.93;;;7.07;;
12445;SDS011;6287;50.984;7.022;2023-08-12T03:28:05;7.50;;;6.43;;
12445;SDS011;6287;50.984;7.022;2023-08-12T03:30:37;9.88;;;6.97;;
12445;SDS011;6287;50.984;7.022;2023-08-12T03:33:05;8.38;;;7.05;;
12445;SDS011;6287;50.984;7.022;2023-08-12T03:35:38;7.38;;;6.35;;
12445;SDS011;6287;50.984;7.022;2023-08-12T03:38:06;9.00;;;6.25;;
12445;SDS011;6287;50.984;7.022;2023-08-12T03:40:37;8.63;;;6.95;;
12445;SDS011;6287;50.984;7.022;2023-08-12T03:43:03;8.60;;;6.57;;
12445;SDS011;6287;50.984;7.022;2023-08-12T03:45:31;8.02;;;6.45;;
12445;SDS011;6287;50.984;7.022;2023-08-12T03:47:57;7.20;;;6.40;;
12445;SDS011;6287;50.984;7.022;2023-08-12T03:50:23;8.13;;;6.60;;
12445;SDS011;6287;50.984;7.022;2023-08-12T03:52:49;7.50;;;6.75;;
12445;SDS011;6287;50.984;7.022;2023-08-12T03:55:14;7.57;;;6.78;;
12445;SDS011;6287;50.984;7.022;2023-08-12T03:57:42;8.75;;;6.30;;
12445;SDS011;6287;50.984;7.022;2023-08-12T04:00:10;9.88;;;7.32;;
12445;SDS011;6287;50.984;7.022;2023-08-12T04:02:36;8.95;;;6.97;;
12445;SDS011;6287;50.984;7.022;2023-08-12T04:05:01;7.07;;;6.30;;
12445;SDS011;6287;50.984;7.022;2023-08-12T04:07:30;7.68;;;6.05;;
12445;SDS011;6287;50.984;7.022;2023-08-12T04:09:58;6.80;;;6.03;;
12445;SDS011;6287;50.984;7.022;2023-08-12T04:12:26;6.10;;;5.50;;
12445;SDS011;6287;50.984;7.022;2023-08-12T04:14:52;10.48;;;5.65;;
12445;SDS011;6287;50.984;7.022;2023-08-12T04:17:17;8.68;;;5.88;;
12445;SDS011;6287;50.984;7.022;2023-08-12T04:19:45;6.97;;;6.03;;
12445;SDS011;6287;50.984;7.022;2023-08-12T04:22:11;6.82;;;5.88;;
12445;SDS011;6287;50.984;7.022;2023-08-12T04:24:39;7.07;;;5.80;;
12445;SDS011;6287;50.984;7.022;2023-08-12T04:27:07;7.22;;;5.13;;
12445;SDS011;6287;50.984;7.022;2023-08-12T04:29:35;9.88;;;6.13;;
12445;SDS011;6287;50.984;7.022;2023-08-12T04:32:03;7.20;;;5.45;;
12445;SDS011;6287;50.984;7.022;2023-08-12T04:34:29;7.78;;;6.00;;
12445;SDS011;6287;50.984;7.022;2023-08-12T04:36:54;8.32;;;5.80;;
12445;SDS011;6287;50.984;7.022;2023-08-12T04:39:20;7.78;;;6.00;;
12445;SDS011;6287;50.984;7.022;2023-08-12T04:41:47;9.80;;;5.80;;
12445;SDS011;6287;50.984;7.022;2023-08-12T04:44:13;6.18;;;5.60;;
12445;SDS011;6287;50.984;7.022;2023-08-12T04:46:43;6.80;;;6.00;;
12445;SDS011;6287;50.984;7.022;2023-08-12T04:49:09;7.53;;;6.40;;
12445;SDS011;6287;50.984;7.022;2023-08-12T04:51:39;6.85;;;6.15;;
12445;SDS011;6287;50.984;7.022;2023-08-12T04:54:09;7.03;;;6.20;;
12445;SDS011;6287;50.984;7.022;2023-08-12T04:56:34;7.15;;;6.22;;
12445;SDS011;6287;50.984;7.022;2023-08-12T04:59:00;7.30;;;6.10;;
12445;SDS011;6287;50.984;7.022;2023-08-12T05:01:25;7.07;;;6.10;;
12445;SDS011;6287;50.984;7.022;2023-08-12T05:03:51;8.15;;;5.82;;
12445;SDS011;6287;50.984;7.022;2023-08-12T05:06:19;7.63;;;6.03;;
12445;SDS011;6287;50.984;7.022;2023-08-12T05:08:47;8.18;;;6.10;;
12445;SDS011;6287;50.984;7.022;2023-08-12T05:11:15;7.72;;;5.80;;
12445;SDS011;6287;50.984;7.022;2023-08-12T05:13:45;8.13;;;5.18;;
12445;SDS011;6287;50.984;7.022;2023-08-12T05:16:13;7.38;;;6.25;;
12445;SDS011;6287;50.984;7.022;2023-08-12T05:18:44;6.60;;;5.30;;
12445;SDS011;6287;50.984;7.022;2023-08-12T05:21:12;8.38;;;5.97;;
12445;SDS011;6287;50.984;7.022;2023-08-12T05:23:39;8.32;;;5.93;;
12445;SDS011;6287;50.984;7.022;2023-08-12T05:26:05;7.78;;;5.40;;
12445;SDS011;6287;50.984;7.022;2023-08-12T05:28:30;6.80;;;5.57;;
12445;SDS011;6287;50.984;7.022;2023-08-12T05:30:58;5.68;;;5.18;;
12445;SDS011;6287;50.984;7.022;2023-08-12T05:33:24;6.95;;;5.53;;
12445;SDS011;6287;50.984;7.022;2023-08-12T05:35:52;6.13;;;5.30;;
12445;SDS011;6287;50.984;7.022;2023-08-12T05:38:18;4.80;;;4.38;;
12445;SDS011;6287;50.984;7.022;2023-08-12T05:40:43;6.57;;;5.43;;
12445;SDS011;6287;50.984;7.022;2023-08-12T05:43:11;7.13;;;4.88;;
12445;SDS011;6287;50.984;7.022;2023-08-12T05:45:39;6.75;;;4.70;;
12445;SDS011;6287;50.984;7.022;2023-08-12T05:48:04;5.30;;;4.75;;
12445;SDS011;6287;50.984;7.022;2023-08-12T05:50:30;5.45;;;4.57;;
12445;SDS011;6287;50.984;7.022;2023-08-12T05:52:56;6.43;;;4.80;;
12445;SDS011;6287;50.984;7.022;2023-08-12T05:55:23;5.22;;;4.72;;
12445;SDS011;6287;50.984;7.022;2023-08-12T05:57:51;6.05;;;4.60;;
12445;SDS011;6287;50.984;7.022;2023-08-12T06:00:17;5.43;;;4.72;;
12445;SDS011;6287;50.984;7.022;2023-08-12T06:02:43;6.72;;;5.00;;
12445;SDS011;6287;50.984;7.022;2023-08-12T06:05:08;5.55;;;4.28;;
12445;SDS011;6287;50.984;7.022;2023-08-12T06:07:34;5.43;;;4.68;;
12445;SDS011;6287;50.984;7.022;2023-08-12T06:10:00;5.75;;;5.15;;
12445;SDS011;6287;50.984;7.022;2023-08-12T06:12:26;8.18;;;5.20;;
12445;SDS011;6287;50.984;7.022;2023-08-12T06:14:53;8.23;;;5.50;;
12445;SDS011;6287;50.984;7.022;2023-08-12T06:17:19;10.00;;;5.25;;
12445;SDS011;6287;50.984;7.022;2023-08-12T06:19:47;6.28;;;4.88;;
12445;SDS011;6287;50.984;7.022;2023-08-12T06:22:12;5.53;;;4.90;;
12445;SDS011;6287;50.984;7.022;2023-08-12T06:24:41;5.85;;;4.93;;
12445;SDS011;6287;50.984;7.022;2023-08-12T06:27:06;6.25;;;4.85;;
12445;SDS011;6287;50.984;7.022;2023-08-12T06:29:34;7.40;;;5.32;;
12445;SDS011;6287;50.984;7.022;2023-08-12T06:32:00;7.93;;;5.35;;
12445;SDS011;6287;50.984;7.022;2023-08-12T06:34:27;6.13;;;5.40;;
12445;SDS011;6287;50.984;7.022;2023-08-12T06:36:55;6.25;;;5.57;;
12445;SDS011;6287;50.984;7.022;2023-08-12T06:39:21;5.85;;;5.25;;
12445;SDS011;6287;50.984;7.022;2023-08-12T06:41:49;7.95;;;5.90;;
12445;SDS011;6287;50.984;7.022;2023-08-12T06:44:20;6.03;;;5.18;;
12445;SDS011;6287;50.984;7.022;2023-08-12T06:46:46;5.47;;;4.97;;
12445;SDS011;6287;50.984;7.022;2023-08-12T06:49:12;6.60;;;4.53;;
12445;SDS011;6287;50.984;7.022;2023-08-12T06:51:39;6.45;;;4.90;;
12445;SDS011;6287;50.984;7.022;2023-08-12T06:54:05;5.40;;;4.63;;
12445;SDS011;6287;50.984;7.022;2023-08-12T06:56:33;6.38;;;4.95;;
12445;SDS011;6287;50.984;7.022;2023-08-12T06:59:01;5.35;;;3.78;;
12445;SDS011;6287;50.984;7.022;2023-08-12T07:01:26;5.20;;;4.20;;
12445;SDS011;6287;50.984;7.022;2023-08-12T07:03:52;7.40;;;4.05;;
12445;SDS011;6287;50.984;7.022;2023-08-12T07:06:20;4.35;;;3.95;;
12445;SDS011;6287;50.984;7.022;2023-08-12T07:08:48;5.30;;;3.88;;
12445;SDS011;6287;50.984;7.022;2023-08-12T07:11:13;4.20;;;3.80;;
12445;SDS011;6287;50.984;7.022;2023-08-12T07:13:39;5.43;;;4.10;;
12445;SDS011;6287;50.984;7.022;2023-08-12T07:16:07;4.55;;;4.00;;
12445;SDS011;6287;50.984;7.022;2023-08-12T07:18:35;3.90;;;3.47;;
12445;SDS011;6287;50.984;7.022;2023-08-12T07:21:00;3.45;;;3.15;;
12445;SDS011;6287;50.984;7.022;2023-08-12T07:23:26;3.45;;;2.97;;
12445;SDS011;6287;50.984;7.022;2023-08-12T07:25:52;6.03;;;3.50;;
12445;SDS011;6287;50.984;7.022;2023-08-12T07:28:20;4.78;;;3.40;;
12445;SDS011;6287;50.984;7.022;2023-08-12T07:30:45;4.22;;;2.80;;
12445;SDS011;6287;50.984;7.022;2023-08-12T07:33:12;3.78;;;2.53;;
12445;SDS011;6287;50.984;7.022;2023-08-12T07:35:38;3.47;;;2.60;;
12445;SDS011;6287;50.984;7.022;2023-08-12T07:38:03;2.88;;;2.67;;
12445;SDS011;6287;50.984;7.022;2023-08-12T07:40:29;2.85;;;2.58;;
12445;SDS011;6287;50.984;7.022;2023-08-12T07:42:57;4.60;;;2.60;;
12445;SDS011;6287;50.984;7.022;2023-08-12T07:45:22;2.72;;;1.98;;
12445;SDS011;6287;50.984;7.022;2023-08-12T07:47:53;3.00;;;2.70;;
12445;SDS011;6287;50.984;7.022;2023-08-12T07:50:21;4.80;;;3.03;;
12445;SDS011;6287;50.984;7.022;2023-08-12T07:52:47;3.83;;;2.70;;
12445;SDS011;6287;50.984;7.022;2023-08-12T07:55:12;2.83;;;2.63;;
12445;SDS011;6287;50.984;7.022;2023-08-12T07:57:38;3.75;;;2.15;;
12445;SDS011;6287;50.984;7.022;2023-08-12T08:00:04;5.03;;;2.67;;
12445;SDS011;6287;50.984;7.022;2023-08-12T08:02:30;3.03;;;2.35;;
12445;SDS011;6287;50.984;7.022;2023-08-12T08:04:58;3.00;;;2.70;;
12445;SDS011;6287;50.984;7.022;2023-08-12T08:07:24;4.10;;;2.45;;
12445;SDS011;6287;50.984;7.022;2023-08-12T08:09:52;2.20;;;2.00;;
12445;SDS011;6287;50.984;7.022;2023-08-12T08:12:18;3.00;;;2.08;;
12445;SDS011;6287;50.984;7.022;2023-08-12T08:14:43;2.80;;;2.20;;
12445;SDS011;6287;50.984;7.022;2023-08-12T08:17:13;1.92;;;1.83;;
12445;SDS011;6287;50.984;7.022;2023-08-12T08:19:41;2.50;;;2.30;;
12445;SDS011;6287;50.984;7.022;2023-08-12T08:22:09;2.53;;;2.33;;
12445;SDS011;6287;50.984;7.022;2023-08-12T08:24:37;2.97;;;2.35;;
12445;SDS011;6287;50.984;7.022;2023-08-12T08:27:05;2.05;;;1.85;;
12445;SDS011;6287;50.984;7.022;2023-08-12T08:29:33;2.80;;;1.92;;
12445;SDS011;6287;50.984;7.022;2023-08-12T08:32:01;1.88;;;1.77;;
12445;SDS011;6287;50.984;7.022;2023-08-12T08:34:29;2.47;;;1.80;;
12445;SDS011;6287;50.984;7.022;2023-08-12T08:36:55;1.98;;;1.60;;
12445;SDS011;6287;50.984;7.022;2023-08-12T08:39:23;2.13;;;1.52;;
12445;SDS011;6287;50.984;7.022;2023-08-12T08:41:49;1.52;;;1.42;;
12445;SDS011;6287;50.984;7.022;2023-08-12T08:44:16;2.08;;;1.73;;
12445;SDS011;6287;50.984;7.022;2023-08-12T08:46:46;1.83;;;1.65;;
12445;SDS011;6287;50.984;7.022;2023-08-12T08:49:14;2.10;;;1.70;;
12445;SDS011;6287;50.984;7.022;2023-08-12T08:51:44;2.10;;;1.85;;
12445;SDS011;6287;50.984;7.022;2023-08-12T08:54:14;2.70;;;1.80;;
12445;SDS011;6287;50.984;7.022;2023-08-12T08:56:40;1.98;;;1.63;;
12445;SDS011;6287;50.984;7.022;2023-08-12T08:59:06;1.75;;;1.65;;
12445;SDS011;6287;50.984;7.022;2023-08-12T09:01:34;1.58;;;1.48;;
12445;SDS011;6287;50.984;7.022;2023-08-12T09:04:01;2.97;;;1.27;;
12445;SDS011;6287;50.984;7.022;2023-08-12T09:06:28;2.42;;;1.70;;
12445;SDS011;6287;50.984;7.022;2023-08-12T09:08:58;1.80;;;1.70;;
12445;SDS011;6287;50.984;7.022;2023-08-12T09:11:26;2.30;;;2.17;;
12445;SDS011;6287;50.984;7.022;2023-08-12T09:13:52;2.92;;;1.67;;
12445;SDS011;6287;50.984;7.022;2023-08-12T09:16:23;1.77;;;1.50;;
12445;SDS011;6287;50.984;7.022;2023-08-12T09:18:54;2.45;;;1.70;;
12445;SDS011;6287;50.984;7.022;2023-08-12T09:21:20;2.45;;;1.30;;
12445;SDS011;6287;50.984;7.022;2023-08-12T09:23:48;2.10;;;1.45;;
12445;SDS011;6287;50.984;7.022;2023-08-12T09:26:18;1.75;;;1.50;;
12445;SDS011;6287;50.984;7.022;2023-08-12T09:28:46;1.50;;;1.40;;
12445;SDS011;6287;50.984;7.022;2023-08-12T09:31:25;2.05;;;1.67;;
12445;SDS011;6287;50.984;7.022;2023-08-12T09:33:53;1.90;;;1.40;;
12445;SDS011;6287;50.984;7.022;2023-08-12T09:36:31;1.50;;;1.40;;
12445;SDS011;6287;50.984;7.022;2023-08-12T09:39:00;1.98;;;1.50;;
12445;SDS011;6287;50.984;7.022;2023-08-12T09:41:33;2.40;;;1.40;;
12445;SDS011;6287;50.984;7.022;2023-08-12T09:44:06;1.70;;;1.60;;
12445;SDS011;6287;50.984;7.022;2023-08-12T09:46:33;1.88;;;1.38;;
12445;SDS011;6287;50.984;7.022;2023-08-12T09:48:59;1.33;;;1.27;;
12445;SDS011;6287;50.984;7.022;2023-08-12T09:51:24;1.95;;;1.30;;
12445;SDS011;6287;50.984;7.022;2023-08-12T09:53:51;1.50;;;1.25;;
12445;SDS011;6287;50.984;7.022;2023-08-12T09:56:23;1.35;;;1.25;;
12445;SDS011;6287;50.984;7.022;2023-08-12T09:58:51;1.48;;;1.38;;
12445;SDS011;6287;50.984;7.022;2023-08-12T10:01:21;1.50;;;1.40;;
12445;SDS011;6287;50.984;7.022;2023-08-12T10:03:48;2.45;;;1.35;;
12445;SDS011;6287;50.984;7.022;2023-08-12T10:06:15;2.63;;;1.70;;
12445;SDS011;6287;50.984;7.022;2023-08-12T10:08:45;1.48;;;1.38;;
12445;SDS011;6287;50.984;7.022;2023-08-12T10:11:12;1.35;;;1.17;;
12445;SDS011;6287;50.984;7.022;2023-08-12T10:13:39;1.38;;;1.25;;
12445;SDS011;6287;50.984;7.022;2023-08-12T10:16:05;2.97;;;1.60;;
12445;SDS011;6287;50.984;7.022;2023-08-12T10:18:34;1.60;;;1.50;;
12445;SDS011;6287;50.984;7.022;2023-08-12T10:21:01;2.35;;;1.38;;
12445;SDS011;6287;50.984;7.022;2023-08-12T10:23:28;1.40;;;1.30;;
12445;SDS011;6287;50.984;7.022;2023-08-12T10:25:55;1.30;;;1.20;;
12445;SDS011;6287;50.984;7.022;2023-08-12T10:28:22;1.40;;;1.23;;
12445;SDS011;6287;50.984;7.022;2023-08-12T10:30:48;1.92;;;1.50;;
12445;SDS011;6287;50.984;7.022;2023-08-12T10:33:14;3.20;;;1.85;;
12445;SDS011;6287;50.984;7.022;2023-08-12T10:35:46;3.10;;;1.77;;
12445;SDS011;6287;50.984;7.022;2023-08-12T10:38:22;2.42;;;1.77;;
12445;SDS011;6287;50.984;7.022;2023-08-12T10:40:51;3.45;;;1.70;;
12445;SDS011;6287;50.984;7.022;2023-08-12T10:43:19;3.28;;;2.35;;
12445;SDS011;6287;50.984;7.022;2023-08-12T10:45:49;1.90;;;1.80;;
12445;SDS011;6287;50.984;7.022;2023-08-12T10:48:24;1.65;;;1.55;;
12445;SDS011;6287;50.984;7.022;2023-08-12T10:50:59;1.60;;;1.50;;
12445;SDS011;6287;50.984;7.022;2023-08-12T10:53:29;2.95;;;1.63;;
12445;SDS011;6287;50.984;7.022;2023-08-12T10:55:59;2.22;;;1.80;;
12445;SDS011;6287;50.984;7.022;2023-08-12T10:58:45;1.80;;;1.70;;
12445;SDS011;6287;50.984;7.022;2023-08-12T11:01:20;2.92;;;1.85;;
12445;SDS011;6287;50.984;7.022;2023-08-12T11:03:50;3.67;;;1.92;;
12445;SDS011;6287;50.984;7.022;2023-08-12T11:06:16;3.78;;;2.55;;
12445;SDS011;6287;50.984;7.022;2023-08-12T11:08:47;2.95;;;2.08;;
12445;SDS011;6287;50.984;7.022;2023-08-12T11:11:21;3.22;;;1.70;;
12445;SDS011;6287;50.984;7.022;2023-08-12T11:13:57;2.15;;;1.50;;
12445;SDS011;6287;50.984;7.022;2023-08-12T11:16:34;3.95;;;1.83;;
12445;SDS011;6287;50.984;7.022;2023-08-12T11:19:00;2.45;;;1.67;;
12445;SDS011;6287;50.984;7.022;2023-08-12T11:21:27;3.25;;;1.90;;
12445;SDS011;6287;50.984;7.022;2023-08-12T11:23:57;1.80;;;1.70;;
12445;SDS011;6287;50.984;7.022;2023-08-12T11:26:24;3.20;;;2.15;;
12445;SDS011;6287;50.984;7.022;2023-08-12T11:28:52;1.88;;;1.77;;
12445;SDS011;6287;50.984;7.022;2023-08-12T11:31:18;2.55;;;1.90;;
12445;SDS011;6287;50.984;7.022;2023-08-12T11:33:46;2.67;;;1.65;;
12445;SDS011;6287;50.984;7.022;2023-08-12T11:36:14;1.90;;;1.73;;
12445;SDS011;6287;50.984;7.022;2023-08-12T11:38:40;1.92;;;1.75;;
12445;SDS011;6287;50.984;7.022;2023-08-12T11:41:07;2.70;;;1.80;;
12445;SDS011;6287;50.984;7.022;2023-08-12T11:43:33;2.35;;;1.60;;
12445;SDS011;6287;50.984;7.022;2023-08-12T11:45:59;1.90;;;1.40;;
12445;SDS011;6287;50.984;7.022;2023-08-12T11:48:25;1.73;;;1.60;;
12445;SDS011;6287;50.984;7.022;2023-08-12T11:50:52;1.23;;;1.23;;
12445;SDS011;6287;50.984;7.022;2023-08-12T11:53:21;1.20;;;1.20;;
12445;SDS011;6287;50.984;7.022;2023-08-12T11:55:46;1.38;;;1.10;;
12445;SDS011;6287;50.984;7.022;2023-08-12T11:58:13;2.20;;;1.40;;
12445;SDS011;6287;50.984;7.022;2023-08-12T12:00:45;1.25;;;1.15;;
12445;SDS011;6287;50.984;7.022;2023-08-12T12:03:16;1.40;;;1.30;;
12445;SDS011;6287;50.984;7.022;2023-08-12T12:05:42;1.80;;;1.65;;
12445;SDS011;6287;50.984;7.022;2023-08-12T12:08:16;1.30;;;1.20;;
12445;SDS011;6287;50.984;7.022;2023-08-12T12:10:41;1.77;;;1.60;;
12445;SDS011;6287;50.984;7.022;2023-08-12T12:13:07;1.88;;;1.27;;
12445;SDS011;6287;50.984;7.022;2023-08-12T12:15:42;2.25;;;1.20;;
12445;SDS011;6287;50.984;7.022;2023-08-12T12:18:09;1.25;;;1.25;;
12445;SDS011;6287;50.984;7.022;2023-08-12T12:20:36;1.55;;;1.45;;
12445;SDS011;6287;50.984;7.022;2023-08-12T12:23:05;4.10;;;1.42;;
12445;SDS011;6287;50.984;7.022;2023-08-12T12:25:32;1.00;;;1.00;;
12445;SDS011;6287;50.984;7.022;2023-08-12T12:28:02;1.90;;;1.33;;
12445;SDS011;6287;50.984;7.022;2023-08-12T12:30:28;1.30;;;1.30;;
12445;SDS011;6287;50.984;7.022;2023-08-12T12:32:56;2.28;;;1.20;;
12445;SDS011;6287;50.984;7.022;2023-08-12T12:35:21;1.08;;;1.00;;
12445;SDS011;6287;50.984;7.022;2023-08-12T12:37:47;1.08;;;1.08;;
12445;SDS011;6287;50.984;7.022;2023-08-12T12:40:13;1.42;;;1.02;;
12445;SDS011;6287;50.984;7.022;2023-08-12T12:42:41;1.10;;;1.10;;
12445;SDS011;6287;50.984;7.022;2023-08-12T12:45:06;2.15;;;1.20;;
12445;SDS011;6287;50.984;7.022;2023-08-12T12:47:35;1.42;;;1.05;;
12445;SDS011;6287;50.984;7.022;2023-08-12T12:50:01;1.38;;;1.27;;
12445;SDS011;6287;50.984;7.022;2023-08-12T12:52:29;1.70;;;1.10;;
12445;SDS011;6287;50.984;7.022;2023-08-12T12:54:57;1.83;;;1.35;;
12445;SDS011;6287;50.984;7.022;2023-08-12T12:57:25;1.15;;;1.15;;
12445;SDS011;6287;50.984;7.022;2023-08-12T12:59:51;1.52;;;1.17;;
12445;SDS011;6287;50.984;7.022;2023-08-12T13:02:16;1.38;;;1.20;;
12445;SDS011;6287;50.984;7.022;2023-08-12T13:04:42;2.05;;;1.00;;
12445;SDS011;6287;50.984;7.022;2023-08-12T13:07:09;0.98;;;0.98;;
12445;SDS011;6287;50.984;7.022;2023-08-12T13:09:35;0.98;;;0.85;;
12445;SDS011;6287;50.984;7.022;2023-08-12T13:12:03;1.33;;;1.23;;
12445;SDS011;6287;50.984;7.022;2023-08-12T13:14:34;1.50;;;1.27;;
12445;SDS011;6287;50.984;7.022;2023-08-12T13:17:00;5.03;;;1.30;;
12445;SDS011;6287;50.984;7.022;2023-08-12T13:19:26;2.28;;;1.05;;
12445;SDS011;6287;50.984;7.022;2023-08-12T13:21:53;1.35;;;1.23;;
12445;SDS011;6287;50.984;7.022;2023-08-12T13:24:21;0.60;;;0.60;;
12445;SDS011;6287;50.984;7.022;2023-08-12T13:26:49;2.38;;;0.88;;
12445;SDS011;6287;50.984;7.022;2023-08-12T13:29:17;1.30;;;1.20;;
12445;SDS011;6287;50.984;7.022;2023-08-12T13:31:43;3.35;;;1.25;;
12445;SDS011;6287;50.984;7.022;2023-08-12T13:34:13;1.42;;;0.73;;
12445;SDS011;6287;50.984;7.022;2023-08-12T13:36:39;0.93;;;0.70;;
12445;SDS011;6287;50.984;7.022;2023-08-12T13:39:07;0.95;;;0.63;;
12445;SDS011;6287;50.984;7.022;2023-08-12T13:41:35;0.75;;;0.75;;
12445;SDS011;6287;50.984;7.022;2023-08-12T13:44:03;2.05;;;0.68;;
12445;SDS011;6287;50.984;7.022;2023-08-12T13:46:29;0.45;;;0.45;;
12445;SDS011;6287;50.984;7.022;2023-08-12T13:48:55;1.55;;;0.77;;
12445;SDS011;6287;50.984;7.022;2023-08-12T13:51:22;0.50;;;0.50;;
12445;SDS011;6287;50.984;7.022;2023-08-12T13:53:50;0.73;;;0.73;;
12445;SDS011;6287;50.984;7.022;2023-08-12T13:56:16;0.68;;;0.60;;
12445;SDS011;6287;50.984;7.022;2023-08-12T13:58:45;0.55;;;0.55;;
12445;SDS011;6287;50.984;7.022;2023-08-12T14:01:11;0.65;;;0.65;;
12445;SDS011;6287;50.984;7.022;2023-08-12T14:03:37;0.63;;;0.63;;
12445;SDS011;6287;50.984;7.022;2023-08-12T14:06:03;0.60;;;0.60;;
12445;SDS011;6287;50.984;7.022;2023-08-12T14:08:28;0.73;;;0.60;;
12445;SDS011;6287;50.984;7.022;2023-08-12T14:10:54;0.70;;;0.70;;
12445;SDS011;6287;50.984;7.022;2023-08-12T14:13:19;2.78;;;0.70;;
12445;SDS011;6287;50.984;7.022;2023-08-12T14:15:45;0.60;;;0.60;;
12445;SDS011;6287;50.984;7.022;2023-08-12T14:18:11;0.73;;;0.68;;
12445;SDS011;6287;50.984;7.022;2023-08-12T14:20:36;0.65;;;0.50;;
12445;SDS011;6287;50.984;7.022;2023-08-12T14:23:04;0.45;;;0.45;;
12445;SDS011;6287;50.984;7.022;2023-08-12T14:25:33;1.10;;;0.52;;
12445;SDS011;6287;50.984;7.022;2023-08-12T14:27:59;0.40;;;0.28;;
12445;SDS011;6287;50.984;7.022;2023-08-12T14:30:24;0.63;;;0.50;;
12445;SDS011;6287;50.984;7.022;2023-08-12T14:32:53;1.60;;;0.40;;
12445;SDS011;6287;50.984;7.022;2023-08-12T14:35:19;0.38;;;0.38;;
12445;SDS011;6287;50.984;7.022;2023-08-12T14:37:50;0.80;;;0.80;;
12445;SDS011;6287;50.984;7.022;2023-08-12T14:40:15;0.68;;;0.68;;
12445;SDS011;6287;50.984;7.022;2023-08-12T14:42:43;0.20;;;0.20;;
12445;SDS011;6287;50.984;7.022;2023-08-12T14:45:11;0.40;;;0.40;;
12445;SDS011;6287;50.984;7.022;2023-08-12T14:47:37;0.70;;;0.40;;
12445;SDS011;6287;50.984;7.022;2023-08-12T14:50:08;0.57;;;0.50;;
12445;SDS011;6287;50.984;7.022;2023-08-12T14:52:37;0.32;;;0.32;;
12445;SDS011;6287;50.984;7.022;2023-08-12T14:55:02;0.35;;;0.30;;
12445;SDS011;6287;50.984;7.022;2023-08-12T14:57:28;0.50;;;0.50;;
12445;SDS011;6287;50.984;7.022;2023-08-12T14:59:54;1.70;;;1.13;;
12445;SDS011;6287;50.984;7.022;2023-08-12T15:02:22;0.40;;;0.40;;
12445;SDS011;6287;50.984;7.022;2023-08-12T15:04:50;1.98;;;0.82;;
12445;SDS011;6287;50.984;7.022;2023-08-12T15:07:16;0.40;;;0.40;;
12445;SDS011;6287;50.984;7.022;2023-08-12T15:09:43;1.65;;;0.85;;